createdAt,value
2023-04-20T00:00:48.773Z,6.50
2023-04-20T00:03:18.441Z,6.60
2023-04-20T00:05:49.293Z,6.50
2023-04-20T00:08:17.468Z,6.40
2023-04-20T00:10:45.317Z,6.40
2023-04-20T00:13:13.414Z,6.40
2023-04-20T00:15:41.185Z,6.50
2023-04-20T00:18:08.938Z,6.60
2023-04-20T00:20:36.914Z,6.50
2023-04-20T00:23:06.235Z,6.50
2023-04-20T00:25:34.139Z,6.50
2023-04-20T00:28:02.085Z,6.40
2023-04-20T00:30:29.836Z,6.30
2023-04-20T00:32:57.626Z,6.30
2023-04-20T00:35:25.783Z,6.30
2023-04-20T00:37:53.528Z,6.30
2023-04-20T00:40:22.800Z,6.40
2023-04-20T00:42:50.852Z,6.40
2023-04-20T00:45:18.698Z,6.30
2023-04-20T00:47:47.434Z,6.20
2023-04-20T00:50:15.754Z,6.00
2023-04-20T00:52:43.713Z,6.00
2023-04-20T00:55:12.118Z,5.90
2023-04-20T00:57:41.994Z,6.10
2023-04-20T01:00:11.055Z,6.10
2023-04-20T01:02:39.181Z,6.10
2023-04-20T01:05:08.351Z,6.10
2023-04-20T01:07:36.785Z,6.20
2023-04-20T01:10:05.175Z,6.10
2023-04-20T01:12:32.941Z,6.00
2023-04-20T01:15:03.087Z,5.90
2023-04-20T01:17:30.919Z,6.00
2023-04-20T01:20:00.088Z,5.90
2023-04-20T01:22:29.183Z,5.90
2023-04-20T01:24:56.934Z,6.00
2023-04-20T01:27:24.680Z,6.00
2023-04-20T01:29:52.389Z,6.00
2023-04-20T01:32:20.106Z,6.00
2023-04-20T01:34:47.821Z,5.90
2023-04-20T01:37:15.711Z,5.90
2023-04-20T01:39:45.829Z,5.90
2023-04-20T01:42:13.598Z,5.80
2023-04-20T01:44:41.325Z,5.90
2023-04-20T01:47:09.146Z,5.90
2023-04-20T01:49:37.010Z,5.80
2023-04-20T01:52:04.767Z,5.80
2023-04-20T01:54:32.505Z,5.90
2023-04-20T01:57:02.456Z,5.90
2023-04-20T01:59:30.314Z,5.90
2023-04-20T02:01:58.259Z,5.80
2023-04-20T02:04:26.468Z,5.80
2023-04-20T02:06:54.267Z,5.70
2023-04-20T02:09:21.982Z,5.70
2023-04-20T02:11:49.792Z,5.70
2023-04-20T02:14:18.886Z,5.40
2023-04-20T02:16:46.810Z,5.50
2023-04-20T02:19:14.578Z,5.40
2023-04-20T02:21:42.287Z,5.20
2023-04-20T02:24:10.009Z,5.00
2023-04-20T02:26:37.799Z,4.90
2023-04-20T02:29:05.568Z,4.80
2023-04-20T02:31:34.731Z,4.80
2023-04-20T02:34:02.677Z,4.60
2023-04-20T02:36:30.938Z,4.60
2023-04-20T02:38:58.640Z,4.40
2023-04-20T02:41:26.404Z,4.40
2023-04-20T02:43:54.119Z,4.40
2023-04-20T02:46:22.036Z,4.40
2023-04-20T02:48:51.179Z,4.30
2023-04-20T02:51:18.958Z,4.30
2023-04-20T02:53:46.771Z,4.40
2023-04-20T02:56:14.512Z,4.40
2023-04-20T02:58:42.218Z,4.50
2023-04-20T03:01:09.959Z,4.50
2023-04-20T03:03:37.893Z,4.40
2023-04-20T03:06:07.919Z,4.40
2023-04-20T03:08:35.794Z,4.30
2023-04-20T03:11:03.602Z,4.30
2023-04-20T03:13:31.357Z,4.20
2023-04-20T03:15:59.124Z,4.20
2023-04-20T03:18:26.893Z,4.20
2023-04-20T03:20:54.887Z,4.10
2023-04-20T03:23:24.145Z,3.90
2023-04-20T03:25:51.899Z,4.00
2023-04-20T03:28:19.630Z,4.00
2023-04-20T03:30:47.356Z,4.00
2023-04-20T03:33:15.113Z,3.90
2023-04-20T03:35:43.208Z,3.90
2023-04-20T03:38:11.120Z,3.70
2023-04-20T03:40:40.173Z,3.70
2023-04-20T03:43:07.883Z,3.70
2023-04-20T03:45:36.137Z,3.70
2023-04-20T03:48:04.240Z,3.70
2023-04-20T03:50:32.109Z,3.70
2023-04-20T03:52:59.957Z,3.70
2023-04-20T03:55:27.772Z,3.60
2023-04-20T03:57:56.798Z,3.70
2023-04-20T04:00:24.629Z,3.60
2023-04-20T04:02:52.496Z,3.50
2023-04-20T04:05:20.634Z,3.60
2023-04-20T04:07:48.541Z,3.70
2023-04-20T04:10:17.856Z,3.60
2023-04-20T04:12:45.646Z,3.50
2023-04-20T04:15:14.984Z,3.50
2023-04-20T04:17:42.708Z,3.50
2023-04-20T04:20:12.032Z,3.60
2023-04-20T04:22:39.761Z,3.60
2023-04-20T04:25:08.664Z,3.50
2023-04-20T04:27:37.599Z,3.50
2023-04-20T04:30:06.114Z,3.50
2023-04-20T04:32:36.102Z,3.50
2023-04-20T04:35:04.500Z,3.50
2023-04-20T04:37:32.270Z,3.60
2023-04-20T04:40:00.105Z,3.70
2023-04-20T04:42:28.934Z,3.80
2023-04-20T04:44:56.938Z,3.80
2023-04-20T04:47:24.675Z,3.70
2023-04-20T04:49:54.685Z,3.70
2023-04-20T04:52:22.685Z,3.80
2023-04-20T04:54:50.809Z,3.90
2023-04-20T04:57:18.558Z,4.10
2023-04-20T04:59:46.476Z,4.10
2023-04-20T05:02:14.237Z,4.20
2023-04-20T05:04:42.154Z,4.10
2023-04-20T05:07:11.407Z,4.20
2023-04-20T05:09:39.237Z,4.20
2023-04-20T05:12:07.473Z,4.30
2023-04-20T05:14:35.357Z,4.20
2023-04-20T05:17:03.284Z,4.30
2023-04-20T05:19:31.058Z,4.20
2023-04-20T05:21:58.830Z,4.10
2023-04-20T05:24:27.935Z,4.30
2023-04-20T05:26:55.666Z,4.20
2023-04-20T05:29:23.393Z,4.20
2023-04-20T05:31:51.210Z,4.40
2023-04-20T05:34:19.032Z,4.50
2023-04-20T05:36:47.877Z,4.70
2023-04-20T05:39:16.062Z,4.90
2023-04-20T05:41:45.885Z,4.90
2023-04-20T05:44:13.616Z,5.10
2023-04-20T05:46:41.404Z,4.90
2023-04-20T05:49:09.197Z,5.00
2023-04-20T05:51:36.948Z,5.10
2023-04-20T05:54:05.216Z,5.20
2023-04-20T05:56:33.033Z,5.30
2023-04-20T05:59:02.411Z,5.30
2023-04-20T06:01:30.144Z,5.10
2023-04-20T06:03:58.119Z,5.10
2023-04-20T06:06:26.497Z,5.20
2023-04-20T06:08:55.100Z,5.30
2023-04-20T06:11:22.834Z,5.50
2023-04-20T06:13:50.834Z,5.60
2023-04-20T06:16:19.900Z,5.60
2023-04-20T06:18:47.819Z,5.50
2023-04-20T06:21:16.072Z,5.70
2023-04-20T06:23:44.496Z,5.90
2023-04-20T06:26:12.335Z,6.10
2023-04-20T06:28:40.174Z,6.20
2023-04-20T06:31:08.738Z,6.30
2023-04-20T06:33:37.826Z,6.20
2023-04-20T06:36:08.379Z,6.30
2023-04-20T06:38:36.321Z,6.50
2023-04-20T06:41:04.474Z,6.40
2023-04-20T06:43:32.314Z,6.70
2023-04-20T06:46:00.004Z,6.90
2023-04-20T06:48:31.538Z,6.90
2023-04-20T06:51:02.106Z,7.00
2023-04-20T06:53:29.916Z,7.00
2023-04-20T06:55:58.261Z,7.20
2023-04-20T06:58:25.955Z,7.40
2023-04-20T07:00:53.659Z,7.30
2023-04-20T07:03:21.563Z,7.30
2023-04-20T07:05:49.413Z,7.20
2023-04-20T07:08:18.839Z,7.00
2023-04-20T07:10:46.610Z,7.00
2023-04-20T07:13:14.418Z,7.20
2023-04-20T07:15:43.585Z,7.30
2023-04-20T07:18:11.361Z,7.30
2023-04-20T07:20:39.218Z,7.10
2023-04-20T07:23:07.009Z,7.10
2023-04-20T07:25:36.134Z,6.90
2023-04-20T07:28:03.898Z,7.00
2023-04-20T07:30:32.198Z,7.40
2023-04-20T07:33:00.109Z,7.50
2023-04-20T07:35:27.976Z,7.80
2023-04-20T07:37:56.345Z,7.80
2023-04-20T07:40:24.326Z,7.80
2023-04-20T07:42:53.382Z,7.70
2023-04-20T07:45:21.844Z,7.60
2023-04-20T07:47:51.721Z,7.80
2023-04-20T07:50:19.581Z,8.00
2023-04-20T07:52:47.516Z,8.00
2023-04-20T07:55:15.860Z,8.20
2023-04-20T07:57:43.673Z,8.30
2023-04-20T08:00:15.037Z,8.30
2023-04-20T08:02:42.874Z,8.20
2023-04-20T08:05:11.106Z,8.30
2023-04-20T08:07:39.373Z,8.40
2023-04-20T08:10:08.257Z,8.40
2023-04-20T08:12:36.340Z,8.80
2023-04-20T08:15:06.541Z,8.90
2023-04-20T08:17:35.812Z,9.50
2023-04-20T08:20:05.799Z,10.20
2023-04-20T08:22:34.274Z,10.30
2023-04-20T08:25:02.119Z,10.30
2023-04-20T08:27:30.629Z,10.30
2023-04-20T08:29:58.472Z,10.50
2023-04-20T08:32:26.771Z,10.70
2023-04-20T08:34:56.750Z,10.60
2023-04-20T08:37:25.502Z,10.20
2023-04-20T08:39:53.429Z,10.00
2023-04-20T08:42:21.184Z,9.30
2023-04-20T08:44:48.981Z,8.80
2023-04-20T08:47:16.739Z,8.80
2023-04-20T08:49:45.625Z,9.00
2023-04-20T08:52:15.000Z,9.00
2023-04-20T08:54:55.094Z,8.80
2023-04-20T08:57:25.947Z,8.80
2023-04-20T08:59:53.783Z,9.00
2023-04-20T09:02:21.986Z,9.20
2023-04-20T09:04:50.024Z,9.30
2023-04-20T09:07:20.563Z,9.00
2023-04-20T09:09:58.134Z,8.90
2023-04-20T09:12:26.545Z,8.80
2023-04-20T09:14:54.898Z,8.70
2023-04-20T09:17:33.161Z,8.70
2023-04-20T09:20:01.180Z,8.80
2023-04-20T09:22:34.155Z,8.90
2023-04-20T09:25:02.477Z,8.70
2023-04-20T09:27:30.274Z,8.80
2023-04-20T09:29:59.393Z,8.60
2023-04-20T09:32:29.236Z,8.60
2023-04-20T09:34:57.549Z,8.60
2023-04-20T09:37:25.694Z,8.60
2023-04-20T09:40:00.592Z,8.60
2023-04-20T09:42:29.521Z,8.60
2023-04-20T09:44:59.087Z,8.40
2023-04-20T09:47:29.783Z,8.50
2023-04-20T09:50:00.340Z,8.60
2023-04-20T09:52:38.060Z,8.80
2023-04-20T09:55:08.862Z,9.10
2023-04-20T09:57:37.319Z,9.40
2023-04-20T10:00:07.118Z,9.80
2023-04-20T10:02:35.182Z,10.00
2023-04-20T10:05:03.412Z,10.20
2023-04-20T10:07:33.184Z,10.50
2023-04-20T10:10:08.073Z,10.80
2023-04-20T10:12:37.032Z,11.00
2023-04-20T10:15:05.367Z,11.10
2023-04-20T10:17:34.252Z,11.10
2023-04-20T10:20:02.102Z,10.70
2023-04-20T10:22:33.313Z,10.80
2023-04-20T10:25:01.375Z,11.10
2023-04-20T10:27:32.242Z,11.50
2023-04-20T10:30:11.168Z,11.70
2023-04-20T10:32:39.069Z,12.10
2023-04-20T10:35:09.001Z,11.90
2023-04-20T10:37:48.994Z,11.70
2023-04-20T10:40:16.925Z,11.70
2023-04-20T10:42:46.387Z,11.50
2023-04-20T10:45:14.207Z,11.10
2023-04-20T10:47:42.049Z,10.90
2023-04-20T10:50:11.412Z,10.80
2023-04-20T10:52:40.773Z,10.50
2023-04-20T10:55:20.798Z,10.80
2023-04-20T10:57:50.241Z,11.20
2023-04-20T11:00:18.946Z,11.80
2023-04-20T11:02:50.944Z,12.00
2023-04-20T11:05:19.091Z,12.30
2023-04-20T11:07:53.688Z,12.50
2023-04-20T11:10:22.330Z,12.50
2023-04-20T11:12:52.058Z,12.30
2023-04-20T11:15:19.992Z,12.20
2023-04-20T11:17:47.839Z,11.90
2023-04-20T11:20:17.746Z,11.90
2023-04-20T11:22:45.700Z,12.00
2023-04-20T11:25:14.016Z,12.30
2023-04-20T11:27:43.165Z,12.10
2023-04-20T11:30:12.874Z,12.10
2023-04-20T11:32:40.886Z,12.40
2023-04-20T11:35:10.985Z,12.70
2023-04-20T11:37:47.780Z,12.90
2023-04-20T11:40:15.896Z,13.00
2023-04-20T11:42:44.037Z,13.20
2023-04-20T11:45:13.546Z,13.00
2023-04-20T11:47:41.603Z,13.00
2023-04-20T11:50:10.329Z,13.20
2023-04-20T11:52:38.241Z,13.30
2023-04-20T11:55:07.824Z,13.30
2023-04-20T11:57:36.151Z,13.20
2023-04-20T12:00:04.906Z,13.20
2023-04-20T12:02:34.158Z,12.80
2023-04-20T12:05:03.080Z,12.60
2023-04-20T12:07:31.227Z,12.30
2023-04-20T12:09:59.130Z,12.10
2023-04-20T12:12:27.041Z,12.10
2023-04-20T12:14:54.848Z,12.60
2023-04-20T12:17:22.809Z,12.90
2023-04-20T12:19:52.574Z,13.40
2023-04-20T12:22:20.379Z,13.90
2023-04-20T12:24:48.217Z,13.90
2023-04-20T12:27:16.352Z,14.30
2023-04-20T12:29:44.060Z,14.30
2023-04-20T12:32:11.878Z,14.20
2023-04-20T12:34:39.614Z,13.80
2023-04-20T12:37:09.079Z,14.00
2023-04-20T12:39:36.899Z,14.40
2023-04-20T12:42:05.016Z,14.60
2023-04-20T12:44:32.791Z,14.80
2023-04-20T12:47:00.623Z,15.00
2023-04-20T12:49:28.349Z,15.10
2023-04-20T12:51:56.089Z,15.00
2023-04-20T12:54:25.246Z,15.30
2023-04-20T12:56:53.007Z,15.00
2023-04-20T12:59:20.738Z,14.80
2023-04-20T13:01:48.618Z,15.00
2023-04-20T13:04:17.139Z,15.00
2023-04-20T13:06:45.130Z,15.30
2023-04-20T13:09:12.950Z,15.10
2023-04-20T13:11:42.067Z,15.10
2023-04-20T13:14:09.787Z,14.90
2023-04-20T13:16:37.953Z,15.00
2023-04-20T13:19:05.754Z,15.20
2023-04-20T13:21:34.134Z,15.60
2023-04-20T13:24:01.949Z,15.90
2023-04-20T13:26:29.853Z,15.90
2023-04-20T13:28:58.979Z,16.10
2023-04-20T13:31:26.860Z,16.30
2023-04-20T13:33:55.369Z,16.30
2023-04-20T13:36:23.271Z,16.30
2023-04-20T13:38:54.615Z,16.10
2023-04-20T13:41:23.563Z,16.30
2023-04-20T13:43:51.454Z,16.60
2023-04-20T13:46:21.080Z,16.70
2023-04-20T13:48:48.909Z,15.90
2023-04-20T13:51:16.652Z,15.70
2023-04-20T13:53:44.733Z,15.50
2023-04-20T13:56:12.522Z,15.20
2023-04-20T13:58:40.254Z,15.30
2023-04-20T14:01:13.096Z,15.30
2023-04-20T14:03:42.977Z,15.50
2023-04-20T14:06:10.867Z,15.60
2023-04-20T14:08:38.715Z,15.30
2023-04-20T14:11:06.828Z,15.30
2023-04-20T14:13:34.616Z,15.40
2023-04-20T14:16:02.517Z,15.70
2023-04-20T14:18:31.021Z,15.90
2023-04-20T14:21:00.113Z,16.20
2023-04-20T14:23:27.915Z,16.40
2023-04-20T14:25:55.713Z,16.30
2023-04-20T14:28:23.602Z,16.00
2023-04-20T14:30:51.561Z,15.90
2023-04-20T14:33:19.315Z,15.80
2023-04-20T14:35:47.080Z,15.80
2023-04-20T14:38:16.175Z,15.80
2023-04-20T14:40:44.025Z,15.90
2023-04-20T14:43:11.863Z,16.10
2023-04-20T14:45:41.627Z,16.20
2023-04-20T14:48:09.430Z,16.20
2023-04-20T14:50:37.336Z,16.20
2023-04-20T14:53:05.074Z,16.40
2023-04-20T14:55:34.216Z,16.70
2023-04-20T14:58:02.274Z,16.80
2023-04-20T15:00:30.378Z,16.80
2023-04-20T15:02:59.715Z,16.60
2023-04-20T15:05:28.648Z,16.40
2023-04-20T15:07:58.026Z,16.20
2023-04-20T15:10:25.823Z,16.00
2023-04-20T15:12:55.000Z,16.00
2023-04-20T15:15:22.859Z,15.90
2023-04-20T15:17:50.798Z,15.90
2023-04-20T15:20:18.592Z,15.80
2023-04-20T15:22:46.653Z,15.60
2023-04-20T15:25:14.645Z,15.70
2023-04-20T15:27:42.368Z,15.80
2023-04-20T15:30:12.306Z,15.80
2023-04-20T15:32:41.555Z,15.80
2023-04-20T15:35:09.637Z,16.10
2023-04-20T15:37:38.023Z,16.50
2023-04-20T15:40:06.895Z,16.60
2023-04-20T15:42:34.698Z,16.60
2023-04-20T15:45:02.652Z,16.50
2023-04-20T15:47:31.860Z,16.60
2023-04-20T15:50:01.614Z,16.40
2023-04-20T15:52:30.616Z,16.20
2023-04-20T15:54:58.388Z,16.10
2023-04-20T15:57:26.208Z,15.80
2023-04-20T15:59:54.040Z,15.70
2023-04-20T16:02:21.955Z,15.60
2023-04-20T16:04:51.465Z,15.50
2023-04-20T16:07:19.482Z,15.40
2023-04-20T16:09:47.290Z,15.40
2023-04-20T16:12:15.100Z,15.50
2023-04-20T16:14:42.890Z,15.50
2023-04-20T16:17:11.018Z,15.40
2023-04-20T16:19:38.816Z,15.30
2023-04-20T16:22:07.943Z,15.20
2023-04-20T16:24:35.700Z,15.10
2023-04-20T16:27:03.850Z,15.00
2023-04-20T16:29:31.665Z,14.90
2023-04-20T16:31:59.542Z,14.90
2023-04-20T16:34:27.311Z,14.90
2023-04-20T16:36:55.170Z,14.90
2023-04-20T16:39:24.348Z,14.90
2023-04-20T16:41:52.380Z,14.80
2023-04-20T16:44:20.530Z,14.80
2023-04-20T16:46:50.530Z,14.80
2023-04-20T16:49:18.278Z,14.80
2023-04-20T16:51:46.227Z,14.70
2023-04-20T16:54:13.994Z,14.60
2023-04-20T16:56:43.044Z,14.60
2023-04-20T16:59:10.960Z,14.50
2023-04-20T17:01:38.836Z,14.40
2023-04-20T17:04:06.880Z,14.50
2023-04-20T17:06:34.854Z,14.50
2023-04-20T17:09:06.929Z,14.60
2023-04-20T17:11:36.033Z,14.60
2023-04-20T17:14:05.364Z,14.60
2023-04-20T17:16:33.213Z,14.60
2023-04-20T17:19:01.065Z,14.60
2023-04-20T17:21:29.104Z,14.60
2023-04-20T17:23:57.140Z,14.50
2023-04-20T17:26:24.977Z,14.30
2023-04-20T17:28:53.624Z,14.30
2023-04-20T17:31:22.884Z,14.20
2023-04-20T17:33:50.714Z,14.10
2023-04-20T17:36:18.468Z,13.90
2023-04-20T17:38:46.185Z,13.80
2023-04-20T17:41:14.003Z,13.70
2023-04-20T17:43:41.776Z,13.50
2023-04-20T17:46:09.762Z,13.30
2023-04-20T17:48:38.840Z,13.20
2023-04-20T17:51:06.627Z,13.10
2023-04-20T17:53:34.351Z,13.00
2023-04-20T17:56:02.090Z,12.80
2023-04-20T17:58:29.879Z,12.70
2023-04-20T18:00:57.712Z,12.60
2023-04-20T18:03:25.842Z,12.40
2023-04-20T18:05:55.115Z,12.30
2023-04-20T18:08:23.340Z,12.10
2023-04-20T18:10:51.175Z,12.00
2023-04-20T18:13:18.952Z,11.90
2023-04-20T18:15:46.761Z,11.80
2023-04-20T18:18:16.695Z,11.70
2023-04-20T18:20:44.835Z,11.60
2023-04-20T18:23:14.568Z,11.50
2023-04-20T18:25:42.669Z,11.40
2023-04-20T18:28:10.861Z,11.30
2023-04-20T18:30:38.695Z,11.20
2023-04-20T18:33:06.591Z,11.00
2023-04-20T18:35:34.691Z,10.90
2023-04-20T18:38:03.017Z,10.80
2023-04-20T18:40:32.426Z,10.70
2023-04-20T18:43:00.232Z,10.60
2023-04-20T18:45:29.323Z,10.50
2023-04-20T18:47:58.060Z,10.40
2023-04-20T18:50:26.011Z,10.40
2023-04-20T18:52:53.910Z,10.30
2023-04-20T18:55:21.704Z,10.30
2023-04-20T18:57:50.848Z,10.30
2023-04-20T19:00:20.671Z,10.20
2023-04-20T19:02:48.676Z,10.20
2023-04-20T19:05:16.579Z,10.10
2023-04-20T19:07:46.083Z,10.00
2023-04-20T19:10:14.036Z,10.00
2023-04-20T19:12:42.006Z,10.00
2023-04-20T19:15:12.262Z,9.90
2023-04-20T19:17:40.020Z,9.90
2023-04-20T19:20:09.499Z,9.90
2023-04-20T19:22:37.287Z,9.80
2023-04-20T19:25:05.825Z,9.70
2023-04-20T19:27:33.842Z,9.70
2023-04-20T19:30:01.739Z,9.70
2023-04-20T19:32:30.913Z,9.60
2023-04-20T19:34:59.699Z,9.60
2023-04-20T19:37:28.018Z,9.50
2023-04-20T19:39:55.808Z,9.50
2023-04-20T19:42:23.782Z,9.40
2023-04-20T19:44:51.605Z,9.40
2023-04-20T19:47:20.235Z,9.40
2023-04-20T19:49:49.629Z,9.40
2023-04-20T19:52:17.387Z,9.40
2023-04-20T19:54:45.130Z,9.30
2023-04-20T19:57:12.940Z,9.20
2023-04-20T19:59:42.046Z,9.20
2023-04-20T20:02:09.881Z,9.20
2023-04-20T20:04:39.228Z,9.10
2023-04-20T20:07:08.496Z,9.00
2023-04-20T20:09:36.529Z,9.00
2023-04-20T20:12:05.419Z,9.00
2023-04-20T20:14:33.277Z,8.90
2023-04-20T20:17:01.087Z,8.90
2023-04-20T20:19:29.892Z,8.80
2023-04-20T20:21:57.651Z,8.90
2023-04-20T20:24:26.770Z,8.80
2023-04-20T20:26:54.754Z,8.90
2023-04-20T20:29:23.047Z,8.80
2023-04-20T20:31:50.849Z,8.80
2023-04-20T20:34:18.611Z,8.80
2023-04-20T20:36:47.033Z,8.70
2023-04-20T20:39:15.994Z,8.70
2023-04-20T20:41:46.536Z,8.70
2023-04-20T20:44:14.513Z,8.50
2023-04-20T20:46:42.505Z,8.50
2023-04-20T20:49:10.380Z,8.40
2023-04-20T20:51:38.212Z,8.40
2023-04-20T20:54:06.249Z,8.40
2023-04-20T20:56:34.045Z,8.40
2023-04-20T20:59:03.112Z,8.30
2023-04-20T21:01:31.587Z,8.40
2023-04-20T21:03:59.443Z,8.30
2023-04-20T21:06:27.296Z,8.40
2023-04-20T21:08:55.489Z,8.20
2023-04-20T21:11:23.426Z,8.20
2023-04-20T21:13:51.159Z,8.10
2023-04-20T21:16:20.275Z,8.20
2023-04-20T21:18:48.010Z,8.10
2023-04-20T21:21:16.517Z,8.00
2023-04-20T21:23:44.399Z,8.00
2023-04-20T21:26:12.191Z,8.00
2023-04-20T21:28:39.921Z,8.00
2023-04-20T21:31:07.672Z,7.90
2023-04-20T21:33:36.840Z,7.90
2023-04-20T21:36:05.044Z,7.80
2023-04-20T21:38:32.774Z,7.70
2023-04-20T21:41:00.668Z,7.70
2023-04-20T21:43:28.462Z,7.70
2023-04-20T21:45:56.239Z,7.70
2023-04-20T21:48:24.031Z,7.70
2023-04-20T21:50:53.152Z,7.80
2023-04-20T21:53:20.884Z,7.90
2023-04-20T21:55:48.644Z,8.00
2023-04-20T21:58:16.803Z,8.10
2023-04-20T22:00:44.569Z,8.20
2023-04-20T22:03:12.404Z,8.30
2023-04-20T22:05:40.343Z,8.40
2023-04-20T22:08:09.524Z,8.50
2023-04-20T22:10:37.280Z,8.40
2023-04-20T22:13:05.005Z,8.40
2023-04-20T22:15:33.032Z,8.30
2023-04-20T22:18:01.104Z,8.30
2023-04-20T22:20:28.904Z,8.30
2023-04-20T22:22:57.393Z,8.40
2023-04-20T22:25:26.653Z,8.40
2023-04-20T22:27:54.390Z,8.40
2023-04-20T22:30:22.171Z,8.30
2023-04-20T22:32:49.953Z,8.30
2023-04-20T22:35:18.003Z,8.30
2023-04-20T22:37:45.794Z,8.30
2023-04-20T22:40:14.171Z,8.20
2023-04-20T22:42:43.241Z,8.20
2023-04-20T22:45:12.100Z,8.20
2023-04-20T22:47:40.067Z,8.20
2023-04-20T22:50:09.547Z,8.20
2023-04-20T22:52:38.120Z,8.20
2023-04-20T22:55:06.683Z,8.20
2023-04-20T22:57:34.434Z,8.20
2023-04-20T23:00:06.303Z,8.20
2023-04-20T23:02:34.152Z,8.20
2023-04-20T23:05:02.739Z,8.20
2023-04-20T23:07:31.937Z,8.10
2023-04-20T23:10:01.433Z,8.10
2023-04-20T23:12:29.993Z,8.00
2023-04-20T23:15:00.612Z,8.00
2023-04-20T23:17:30.020Z,7.90
2023-04-20T23:19:58.325Z,7.90
2023-04-20T23:22:26.054Z,7.90
2023-04-20T23:24:53.801Z,7.80
2023-04-20T23:27:21.532Z,7.70
2023-04-20T23:29:49.284Z,7.70
2023-04-20T23:32:16.985Z,7.70
2023-04-20T23:34:46.040Z,7.60
2023-04-20T23:37:13.743Z,7.60
2023-04-20T23:39:41.531Z,7.60
2023-04-20T23:42:09.286Z,7.50
2023-04-20T23:44:37.017Z,7.40
2023-04-20T23:47:04.755Z,7.40
2023-04-20T23:49:32.519Z,7.40
2023-04-20T23:52:01.593Z,7.30
2023-04-20T23:54:30.684Z,7.20
2023-04-20T23:56:59.516Z,7.10
2023-04-20T23:59:27.246Z,7.10
